createdAt,value
2023-05-22T00:00:02.322Z,16.2
2023-05-22T00:01:01.996Z,16.2
2023-05-22T00:02:02.027Z,16.1
2023-05-22T00:03:01.975Z,16.3
2023-05-22T00:04:02.084Z,16.2
2023-05-22T00:05:02.133Z,16.3
2023-05-22T00:06:01.932Z,16.2
2023-05-22T00:07:01.928Z,16.2
2023-05-22T00:08:02.039Z,16.1
2023-05-22T00:09:01.912Z,16.1
2023-05-22T00:10:01.898Z,16.1
2023-05-22T00:11:01.986Z,16
2023-05-22T00:12:01.889Z,16.2
2023-05-22T00:13:01.833Z,16.3
2023-05-22T00:14:01.925Z,16.2
2023-05-22T00:15:01.863Z,16.1
2023-05-22T00:16:01.711Z,16.2
2023-05-22T00:17:01.861Z,16.2
2023-05-22T00:18:01.749Z,16.4
2023-05-22T00:19:01.783Z,16.1
2023-05-22T00:20:01.735Z,16.2
2023-05-22T00:21:01.765Z,16
2023-05-22T00:22:01.794Z,16.1
2023-05-22T00:23:01.750Z,16.3
2023-05-22T00:24:01.824Z,16.2
2023-05-22T00:25:01.682Z,16.1
2023-05-22T00:26:01.785Z,16
2023-05-22T00:27:01.643Z,16.3
2023-05-22T00:28:01.688Z,16.4
2023-05-22T00:29:01.538Z,16.1
2023-05-22T00:30:01.725Z,16.2
2023-05-22T00:31:01.655Z,16.1
2023-05-22T00:32:01.758Z,16.1
2023-05-22T00:33:01.635Z,16
2023-05-22T00:34:01.751Z,16.1
2023-05-22T00:35:01.584Z,16.3
2023-05-22T00:36:01.641Z,16.1
2023-05-22T00:37:01.453Z,16.3
2023-05-22T00:38:01.419Z,16.1
2023-05-22T00:39:01.321Z,16.3
2023-05-22T00:40:01.411Z,16.3
2023-05-22T00:41:01.314Z,16.3
2023-05-22T00:42:01.408Z,16.1
2023-05-22T00:43:01.294Z,15.9
2023-05-22T00:44:01.407Z,15.8
2023-05-22T00:45:01.253Z,16
2023-05-22T00:46:01.525Z,16
2023-05-22T00:47:01.652Z,16.1
2023-05-22T00:48:01.801Z,15.8
2023-05-22T00:49:01.732Z,15.9
2023-05-22T00:50:01.836Z,16.1
2023-05-22T00:51:01.720Z,16.2
2023-05-22T00:52:01.700Z,16
2023-05-22T00:53:01.493Z,16
2023-05-22T00:54:01.539Z,15.7
2023-05-22T00:55:01.347Z,15.7
2023-05-22T00:56:01.410Z,15.7
2023-05-22T00:57:01.266Z,15.8
2023-05-22T00:58:02.365Z,16
2023-05-22T00:59:02.233Z,16
2023-05-22T01:00:02.246Z,16
2023-05-22T01:01:01.302Z,16
2023-05-22T01:02:02.364Z,16
2023-05-22T01:03:02.234Z,16.1
2023-05-22T01:04:02.364Z,16.1
2023-05-22T01:05:01.313Z,15.8
2023-05-22T01:06:02.384Z,16.1
2023-05-22T01:07:02.226Z,15.9
2023-05-22T01:08:02.274Z,16
2023-05-22T01:09:02.137Z,15.7
2023-05-22T01:10:02.159Z,15.7
2023-05-22T01:11:02.054Z,15.8
2023-05-22T01:12:02.120Z,15.7
2023-05-22T01:13:02.010Z,15.8
2023-05-22T01:14:02.013Z,16
2023-05-22T01:15:01.961Z,15.7
2023-05-22T01:16:02.193Z,15.9
2023-05-22T01:17:02.021Z,15.8
2023-05-22T01:18:02.170Z,15.8
2023-05-22T01:19:02.028Z,15.8
2023-05-22T01:20:02.191Z,15.7
2023-05-22T01:21:01.938Z,15.7
2023-05-22T01:22:02.038Z,15.7
2023-05-22T01:23:01.853Z,15.8
2023-05-22T01:24:01.895Z,15.6
2023-05-22T01:25:01.874Z,15.5
2023-05-22T01:26:01.867Z,15.6
2023-05-22T01:27:01.857Z,15.4
2023-05-22T01:28:01.954Z,15.7
2023-05-22T01:29:01.968Z,15.7
2023-05-22T01:30:02.000Z,15.6
2023-05-22T01:31:02.230Z,15.5
2023-05-22T01:32:02.278Z,15.7
2023-05-22T01:33:02.188Z,15.5
2023-05-22T01:34:02.175Z,15.5
2023-05-22T01:35:02.054Z,15.5
2023-05-22T01:36:02.148Z,15.6
2023-05-22T01:37:02.061Z,15.7
2023-05-22T01:38:02.077Z,15.4
2023-05-22T01:39:02.000Z,15.5
2023-05-22T01:40:02.034Z,15.3
2023-05-22T01:41:02.040Z,15.4
2023-05-22T01:42:01.989Z,15.5
2023-05-22T01:43:01.976Z,15.5
2023-05-22T01:44:02.035Z,15.4
2023-05-22T01:45:01.968Z,15.5
2023-05-22T01:46:02.100Z,15.3
2023-05-22T01:47:02.098Z,15.2
2023-05-22T01:48:02.067Z,15.5
2023-05-22T01:49:02.069Z,15.2
2023-05-22T01:50:02.140Z,15
2023-05-22T01:51:01.988Z,15.1
2023-05-22T01:52:02.007Z,15.1
2023-05-22T01:53:02.033Z,15.2
2023-05-22T01:54:01.994Z,15.1
2023-05-22T01:55:01.988Z,15
2023-05-22T01:56:01.999Z,14.9
2023-05-22T01:57:01.857Z,14.9
2023-05-22T01:58:01.781Z,14.8
2023-05-22T01:59:01.826Z,14.9
2023-05-22T02:00:03.031Z,14.9
2023-05-22T02:01:02.114Z,14.8
2023-05-22T02:02:02.141Z,14.7
2023-05-22T02:03:02.166Z,14.8
2023-05-22T02:04:02.147Z,14.7
2023-05-22T02:05:02.093Z,14.8
2023-05-22T02:06:02.195Z,14.7
2023-05-22T02:07:02.054Z,14.7
2023-05-22T02:08:02.170Z,14.6
2023-05-22T02:09:02.077Z,14.8
2023-05-22T02:10:02.130Z,15
2023-05-22T02:11:02.031Z,14.8
2023-05-22T02:12:01.971Z,14.9
2023-05-22T02:13:02.040Z,15.1
2023-05-22T02:14:01.961Z,15
2023-05-22T02:15:01.962Z,15.1
2023-05-22T02:16:02.163Z,15.1
2023-05-22T02:17:02.242Z,15
2023-05-22T02:18:02.250Z,15
2023-05-22T02:19:02.181Z,15
2023-05-22T02:20:02.143Z,15
2023-05-22T02:21:02.078Z,15
2023-05-22T02:22:02.026Z,15
2023-05-22T02:23:01.978Z,14.9
2023-05-22T02:24:02.046Z,15
2023-05-22T02:25:01.902Z,15.1
2023-05-22T02:26:01.982Z,14.8
2023-05-22T02:27:01.808Z,15
2023-05-22T02:28:01.723Z,14.9
2023-05-22T02:29:01.766Z,14.8
2023-05-22T02:30:01.585Z,14.6
2023-05-22T02:31:01.559Z,14.7
2023-05-22T02:32:01.543Z,14.8
2023-05-22T02:33:01.382Z,14.8
2023-05-22T02:34:01.392Z,14.8
2023-05-22T02:35:02.341Z,14.9
2023-05-22T02:36:02.184Z,14.7
2023-05-22T02:37:02.213Z,14.8
2023-05-22T02:38:02.096Z,14.9
2023-05-22T02:39:02.139Z,14.8
2023-05-22T02:40:02.050Z,14.9
2023-05-22T02:41:02.034Z,14.9
2023-05-22T02:42:01.944Z,14.6
2023-05-22T02:43:02.034Z,14.7
2023-05-22T02:44:01.891Z,14.7
2023-05-22T02:45:01.791Z,14.8
2023-05-22T02:46:02.018Z,14.7
2023-05-22T02:47:02.084Z,14.8
2023-05-22T02:48:02.032Z,14.7
2023-05-22T02:49:01.939Z,14.5
2023-05-22T02:50:01.892Z,14.8
2023-05-22T02:51:01.840Z,14.8
2023-05-22T02:52:01.846Z,14.6
2023-05-22T02:53:01.918Z,14.8
2023-05-22T02:54:01.822Z,14.4
2023-05-22T02:55:01.745Z,14.4
2023-05-22T02:56:01.850Z,14.7
2023-05-22T02:57:01.652Z,14.6
2023-05-22T02:58:01.739Z,14.7
2023-05-22T02:59:01.597Z,14.7
2023-05-22T03:00:02.524Z,14.6
2023-05-22T03:01:01.358Z,14.5
2023-05-22T03:02:01.447Z,14.7
2023-05-22T03:03:01.472Z,14.6
2023-05-22T03:04:01.675Z,14.7
2023-05-22T03:05:01.567Z,14.6
2023-05-22T03:06:01.633Z,14.5
2023-05-22T03:07:01.494Z,14.5
2023-05-22T03:08:01.476Z,14.5
2023-05-22T03:09:01.338Z,14.6
2023-05-22T03:10:01.365Z,14.4
2023-05-22T03:11:02.350Z,14.4
2023-05-22T03:12:02.221Z,14.4
2023-05-22T03:13:02.315Z,14.4
2023-05-22T03:14:02.187Z,14.4
2023-05-22T03:15:02.202Z,14.5
2023-05-22T03:16:02.256Z,14.5
2023-05-22T03:17:02.295Z,14.4
2023-05-22T03:18:02.160Z,14.5
2023-05-22T03:19:02.185Z,14.3
2023-05-22T03:20:02.066Z,14.5
2023-05-22T03:21:02.064Z,14.5
2023-05-22T03:22:01.993Z,14.4
2023-05-22T03:23:01.993Z,14.4
2023-05-22T03:24:01.971Z,14.5
2023-05-22T03:25:01.907Z,14.6
2023-05-22T03:26:01.876Z,14.5
2023-05-22T03:27:01.893Z,14.5
2023-05-22T03:28:01.755Z,14.5
2023-05-22T03:29:01.875Z,14.5
2023-05-22T03:30:01.400Z,14.4
2023-05-22T03:31:01.549Z,14.5
2023-05-22T03:32:01.522Z,14.5
2023-05-22T03:33:01.416Z,14.5
2023-05-22T03:34:01.552Z,14.6
2023-05-22T03:35:01.438Z,14.5
2023-05-22T03:36:01.465Z,14.4
2023-05-22T03:37:01.335Z,14.4
2023-05-22T03:38:01.462Z,14.3
2023-05-22T03:39:01.292Z,14.3
2023-05-22T03:40:02.377Z,14.4
2023-05-22T03:41:02.216Z,14.4
2023-05-22T03:42:02.263Z,14.5
2023-05-22T03:43:02.162Z,14.2
2023-05-22T03:44:02.215Z,14.2
2023-05-22T03:45:02.112Z,14.2
2023-05-22T03:46:01.340Z,14.3
2023-05-22T03:47:02.396Z,14.3
2023-05-22T03:48:02.298Z,14.3
2023-05-22T03:49:02.332Z,14.3
2023-05-22T03:50:02.202Z,14.2
2023-05-22T03:51:02.265Z,14.4
2023-05-22T03:52:02.133Z,14.3
2023-05-22T03:53:02.218Z,14.3
2023-05-22T03:54:02.084Z,14.5
2023-05-22T03:55:02.153Z,14.5
2023-05-22T03:56:02.020Z,14.4
2023-05-22T03:57:01.984Z,14.4
2023-05-22T03:58:01.879Z,14.5
2023-05-22T03:59:01.835Z,14.4
2023-05-22T04:00:01.883Z,14.5
2023-05-22T04:01:01.497Z,14.5
2023-05-22T04:02:01.669Z,14.4
2023-05-22T04:03:01.598Z,14.6
2023-05-22T04:04:01.502Z,14.6
2023-05-22T04:05:01.391Z,14.3
2023-05-22T04:06:01.368Z,14.3
2023-05-22T04:07:02.342Z,14.5
2023-05-22T04:08:02.229Z,14.6
2023-05-22T04:09:02.270Z,14.5
2023-05-22T04:10:02.147Z,14.6
2023-05-22T04:11:02.224Z,14.6
2023-05-22T04:12:02.118Z,14.5
2023-05-22T04:13:02.191Z,14.6
2023-05-22T04:14:02.083Z,14.4
2023-05-22T04:15:02.111Z,14.3
2023-05-22T04:16:02.079Z,14.3
2023-05-22T04:17:01.921Z,14.5
2023-05-22T04:18:02.073Z,14.5
2023-05-22T04:19:01.940Z,14.4
2023-05-22T04:20:02.006Z,14.4
2023-05-22T04:21:02.029Z,14.4
2023-05-22T04:22:01.932Z,14.5
2023-05-22T04:23:01.904Z,14.6
2023-05-22T04:24:02.008Z,14.7
2023-05-22T04:25:01.914Z,14.6
2023-05-22T04:26:01.889Z,14.6
2023-05-22T04:27:01.956Z,14.8
2023-05-22T04:28:01.850Z,14.8
2023-05-22T04:29:01.805Z,15
2023-05-22T04:30:01.896Z,15
2023-05-22T04:31:01.692Z,15.1
2023-05-22T04:32:01.727Z,14.8
2023-05-22T04:33:01.674Z,15.1
2023-05-22T04:34:01.696Z,15.3
2023-05-22T04:35:01.747Z,15
2023-05-22T04:36:01.724Z,15.2
2023-05-22T04:37:01.678Z,15.3
2023-05-22T04:38:01.545Z,15.2
2023-05-22T04:39:01.645Z,15.2
2023-05-22T04:40:01.468Z,15.2
2023-05-22T04:41:01.509Z,15.3
2023-05-22T04:42:01.375Z,15.4
2023-05-22T04:43:01.377Z,15.2
2023-05-22T04:44:02.372Z,15.3
2023-05-22T04:45:02.246Z,15.3
2023-05-22T04:46:01.355Z,15.5
2023-05-22T04:47:01.423Z,15.4
2023-05-22T04:48:02.473Z,15.4
2023-05-22T04:49:01.746Z,15.4
2023-05-22T04:50:01.784Z,15.4
2023-05-22T04:51:01.637Z,15.4
2023-05-22T04:52:01.696Z,15.5
2023-05-22T04:53:01.548Z,15.6
2023-05-22T04:54:01.618Z,15.7
2023-05-22T04:55:02.770Z,15.8
2023-05-22T04:56:01.651Z,15.8
2023-05-22T04:57:01.676Z,15.7
2023-05-22T04:58:01.609Z,15.8
2023-05-22T04:59:01.589Z,16
2023-05-22T05:00:02.837Z,16.1
2023-05-22T05:01:01.483Z,16.2
2023-05-22T05:02:01.447Z,16.2
2023-05-22T05:03:01.436Z,16.2
2023-05-22T05:04:01.629Z,16.2
2023-05-22T05:05:01.515Z,16.4
2023-05-22T05:06:01.556Z,16.5
2023-05-22T05:07:01.378Z,16.4
2023-05-22T05:08:01.430Z,16.5
2023-05-22T05:09:01.304Z,16.4
2023-05-22T05:10:01.278Z,16.5
2023-05-22T05:11:02.299Z,16.5
2023-05-22T05:12:02.136Z,16.5
2023-05-22T05:13:02.156Z,16.7
2023-05-22T05:14:02.067Z,16.7
2023-05-22T05:15:02.129Z,16.8
2023-05-22T05:16:02.031Z,16.7
2023-05-22T05:17:02.034Z,16.8
2023-05-22T05:18:02.001Z,16.8
2023-05-22T05:19:01.870Z,16.9
2023-05-22T05:20:01.722Z,16.9
2023-05-22T05:21:01.770Z,16.8
2023-05-22T05:22:01.576Z,16.9
2023-05-22T05:23:01.529Z,16.9
2023-05-22T05:24:01.578Z,17.1
2023-05-22T05:25:01.498Z,17.1
2023-05-22T05:26:01.488Z,17.1
2023-05-22T05:27:01.382Z,17.2
2023-05-22T05:28:01.440Z,17.2
2023-05-22T05:29:01.305Z,16.8
2023-05-22T05:30:02.397Z,17
2023-05-22T05:31:01.264Z,16.9
2023-05-22T05:32:02.319Z,17
2023-05-22T05:33:02.267Z,17.3
2023-05-22T05:34:02.163Z,17.2
2023-05-22T05:35:02.071Z,17.3
2023-05-22T05:36:02.121Z,17.6
2023-05-22T05:37:01.926Z,17.3
2023-05-22T05:38:01.940Z,17.3
2023-05-22T05:39:02.021Z,17.4
2023-05-22T05:40:01.835Z,17.7
2023-05-22T05:41:01.792Z,17.7
2023-05-22T05:42:01.863Z,17.6
2023-05-22T05:43:01.720Z,17.9
2023-05-22T05:44:01.727Z,18
2023-05-22T05:45:01.634Z,18.1
2023-05-22T05:46:01.742Z,18
2023-05-22T05:47:01.743Z,17.9
2023-05-22T05:48:01.651Z,18
2023-05-22T05:49:01.606Z,18.2
2023-05-22T05:50:01.483Z,18.1
2023-05-22T05:51:01.441Z,18.2
2023-05-22T05:52:01.326Z,18.4
2023-05-22T05:53:01.393Z,18.4
2023-05-22T05:54:02.313Z,18.4
2023-05-22T05:55:02.220Z,18.4
2023-05-22T05:56:02.260Z,18.4
2023-05-22T05:57:02.148Z,18.4
2023-05-22T05:58:02.183Z,18.3
2023-05-22T05:59:02.080Z,18.7
2023-05-22T06:00:02.098Z,18.6
2023-05-22T06:01:01.825Z,18.4
2023-05-22T06:02:01.860Z,18.5
2023-05-22T06:03:01.834Z,18.6
2023-05-22T06:04:01.929Z,18.7
2023-05-22T06:05:02.100Z,18.9
2023-05-22T06:06:02.261Z,19
2023-05-22T06:07:02.070Z,19
2023-05-22T06:08:02.147Z,18.9
2023-05-22T06:09:02.119Z,19.1
2023-05-22T06:10:02.213Z,19.1
2023-05-22T06:11:01.952Z,19
2023-05-22T06:12:01.991Z,19.1
2023-05-22T06:13:01.869Z,18.9
2023-05-22T06:14:01.807Z,19
2023-05-22T06:15:01.811Z,19.3
2023-05-22T06:16:04.208Z,19.4
2023-05-22T06:17:01.676Z,19.4
2023-05-22T06:18:01.744Z,19.4
2023-05-22T06:19:01.613Z,19.3
2023-05-22T06:20:01.592Z,19.3
2023-05-22T06:21:01.411Z,19.6
2023-05-22T06:22:01.452Z,19.3
2023-05-22T06:23:01.327Z,19.4
2023-05-22T06:24:01.456Z,19.5
2023-05-22T06:25:02.379Z,19.6
2023-05-22T06:26:02.236Z,19.5
2023-05-22T06:27:02.325Z,19.7
2023-05-22T06:28:02.206Z,19.7
2023-05-22T06:29:02.247Z,19.7
2023-05-22T06:30:03.706Z,19.7
2023-05-22T06:31:01.321Z,19.9
2023-05-22T06:32:01.456Z,20
2023-05-22T06:33:02.397Z,20
2023-05-22T06:34:02.422Z,20.1
2023-05-22T06:35:01.448Z,20.1
2023-05-22T06:36:01.347Z,20.2
2023-05-22T06:37:01.419Z,20.3
2023-05-22T06:38:02.369Z,20.2
2023-05-22T06:39:02.260Z,20.3
2023-05-22T06:40:01.413Z,20.2
2023-05-22T06:41:02.368Z,20.3
2023-05-22T06:42:02.220Z,20.4
2023-05-22T06:43:02.264Z,20.3
2023-05-22T06:44:02.131Z,20.5
2023-05-22T06:45:02.213Z,20.6
2023-05-22T06:46:01.734Z,20.6
2023-05-22T06:47:01.720Z,20.4
2023-05-22T06:48:01.591Z,20.4
2023-05-22T06:49:01.600Z,20.4
2023-05-22T06:50:01.447Z,20.4
2023-05-22T06:51:01.462Z,20.6
2023-05-22T06:52:02.743Z,20.6
2023-05-22T06:53:01.990Z,20.6
2023-05-22T06:54:02.067Z,20.5
2023-05-22T06:55:01.825Z,20.5
2023-05-22T06:56:01.719Z,20.7
2023-05-22T06:57:01.786Z,20.7
2023-05-22T06:58:01.652Z,20.9
2023-05-22T06:59:01.676Z,20.8
2023-05-22T07:00:01.546Z,20.6
2023-05-22T07:01:01.626Z,20.6
2023-05-22T07:02:01.701Z,20.9
2023-05-22T07:03:01.598Z,20.9
2023-05-22T07:04:01.691Z,21.1
2023-05-22T07:05:01.541Z,20.8
2023-05-22T07:06:01.612Z,21
2023-05-22T07:07:01.566Z,21
2023-05-22T07:08:01.825Z,21
2023-05-22T07:09:01.647Z,20.9
2023-05-22T07:10:01.697Z,21.1
2023-05-22T07:11:01.537Z,21.1
2023-05-22T07:12:01.582Z,21.1
2023-05-22T07:13:01.448Z,21.1
2023-05-22T07:14:01.505Z,20.9
2023-05-22T07:15:01.346Z,21
2023-05-22T07:16:01.370Z,21
2023-05-22T07:17:01.406Z,20.9
2023-05-22T07:18:02.347Z,20.9
2023-05-22T07:19:02.238Z,20.9
2023-05-22T07:20:02.288Z,21.1
2023-05-22T07:21:02.162Z,21.1
2023-05-22T07:22:02.153Z,21
2023-05-22T07:23:02.042Z,21.2
2023-05-22T07:24:02.104Z,21
2023-05-22T07:25:01.973Z,20.8
2023-05-22T07:26:01.833Z,20.6
2023-05-22T07:27:01.911Z,20.7
2023-05-22T07:28:01.709Z,20.8
2023-05-22T07:29:01.755Z,20.9
2023-05-22T07:30:01.628Z,20.7
2023-05-22T07:31:01.520Z,20.9
2023-05-22T07:32:01.599Z,21
2023-05-22T07:33:01.638Z,21
2023-05-22T07:34:01.701Z,21
2023-05-22T07:35:01.510Z,21
2023-05-22T07:36:01.480Z,21.1
2023-05-22T07:37:01.384Z,20.8
2023-05-22T07:38:01.381Z,20.9
2023-05-22T07:39:01.316Z,21
2023-05-22T07:40:01.350Z,21.1
2023-05-22T07:41:02.295Z,21.2
2023-05-22T07:42:02.213Z,21.3
2023-05-22T07:43:02.160Z,21.3
2023-05-22T07:44:02.033Z,21.3
2023-05-22T07:45:01.982Z,21.4
2023-05-22T07:46:01.910Z,21.5
2023-05-22T07:47:01.924Z,21.1
2023-05-22T07:48:01.984Z,21.6
2023-05-22T07:49:01.860Z,21.7
2023-05-22T07:50:01.781Z,21.8
2023-05-22T07:51:01.748Z,21.6
2023-05-22T07:52:01.641Z,21.6
2023-05-22T07:53:01.707Z,21.6
2023-05-22T07:54:01.543Z,21.7
2023-05-22T07:55:01.557Z,21.7
2023-05-22T07:56:01.358Z,21.9
2023-05-22T07:57:01.440Z,21.8
2023-05-22T07:58:01.299Z,22
2023-05-22T07:59:02.318Z,21.9
2023-05-22T08:00:02.532Z,22
2023-05-22T08:01:02.092Z,22
2023-05-22T08:02:02.160Z,22.1
2023-05-22T08:03:02.089Z,22.3
2023-05-22T08:04:02.449Z,22.2
2023-05-22T08:05:01.896Z,22.1
2023-05-22T08:06:01.924Z,22
2023-05-22T08:07:01.791Z,22.2
2023-05-22T08:08:01.757Z,22.2
2023-05-22T08:09:01.809Z,22.1
2023-05-22T08:10:01.647Z,22.2
2023-05-22T08:11:04.377Z,22.3
2023-05-22T08:12:01.810Z,22.1
2023-05-22T08:13:01.767Z,22.2
2023-05-22T08:14:01.787Z,22.3
2023-05-22T08:15:01.667Z,22.4
2023-05-22T08:16:01.851Z,22.3
2023-05-22T08:17:01.736Z,22.4
2023-05-22T08:18:01.579Z,22.5
2023-05-22T08:19:01.673Z,22.5
2023-05-22T08:20:01.969Z,22.6
2023-05-22T08:21:02.168Z,22.5
2023-05-22T08:22:02.231Z,22.4
2023-05-22T08:23:02.081Z,22.5
2023-05-22T08:24:02.154Z,22.6
2023-05-22T08:25:01.985Z,22.5
2023-05-22T08:26:02.065Z,22.3
2023-05-22T08:27:01.908Z,22.1
2023-05-22T08:28:01.874Z,22.1
2023-05-22T08:29:01.823Z,22.2
2023-05-22T08:30:01.651Z,22
2023-05-22T08:31:01.993Z,22.2
2023-05-22T08:32:02.076Z,22.3
2023-05-22T08:33:01.966Z,22.4
2023-05-22T08:34:01.885Z,22.6
2023-05-22T08:35:01.968Z,22.5
2023-05-22T08:36:01.856Z,22.7
2023-05-22T08:37:01.745Z,23.1
2023-05-22T08:38:01.764Z,23.1
2023-05-22T08:39:01.665Z,23
2023-05-22T08:40:01.643Z,23.1
2023-05-22T08:41:01.526Z,22.8
2023-05-22T08:42:01.599Z,22.6
2023-05-22T08:43:01.430Z,22.8
2023-05-22T08:44:01.458Z,22.7
2023-05-22T08:45:01.427Z,22.7
2023-05-22T08:46:01.576Z,22.9
2023-05-22T08:47:01.802Z,22.9
2023-05-22T08:48:01.632Z,23
2023-05-22T08:49:01.648Z,22.9
2023-05-22T08:50:01.502Z,22.7
2023-05-22T08:51:01.482Z,23
2023-05-22T08:52:01.388Z,22.9
2023-05-22T08:53:01.391Z,23.1
2023-05-22T08:54:01.274Z,23.2
2023-05-22T08:55:01.357Z,23
2023-05-22T08:56:02.361Z,22.9
2023-05-22T08:57:02.204Z,23
2023-05-22T08:58:02.294Z,22.7
2023-05-22T08:59:02.145Z,22.8
2023-05-22T09:00:02.600Z,22.7
2023-05-22T09:01:02.206Z,22.8
2023-05-22T09:02:03.237Z,23
2023-05-22T09:03:01.458Z,23.4
2023-05-22T09:04:01.725Z,23.5
2023-05-22T09:05:01.652Z,23.5
2023-05-22T09:06:01.764Z,23.6
2023-05-22T09:07:01.776Z,23.8
2023-05-22T09:08:12.412Z,24
2023-05-22T09:09:01.818Z,24.2
2023-05-22T09:10:01.879Z,23.6
2023-05-22T09:11:01.682Z,23.7
2023-05-22T09:12:01.688Z,23.6
2023-05-22T09:13:01.556Z,23.7
2023-05-22T09:14:01.638Z,23.7
2023-05-22T09:15:01.445Z,23.7
2023-05-22T09:16:01.543Z,24.3
2023-05-22T09:17:01.576Z,24.5
2023-05-22T09:18:01.473Z,24.2
2023-05-22T09:19:01.439Z,23.9
2023-05-22T09:20:01.391Z,23.7
2023-05-22T09:21:01.443Z,23.7
2023-05-22T09:22:01.376Z,23.7
2023-05-22T09:23:01.395Z,23.6
2023-05-22T09:24:02.383Z,23.6
2023-05-22T09:25:02.290Z,23.5
2023-05-22T09:26:02.291Z,23.7
2023-05-22T09:27:02.145Z,24
2023-05-22T09:28:02.157Z,24.1
2023-05-22T09:29:02.055Z,24.2
2023-05-22T09:30:02.074Z,24
2023-05-22T09:31:04.060Z,24.2
2023-05-22T09:32:01.298Z,24.2
2023-05-22T09:33:01.412Z,24.5
2023-05-22T09:34:01.354Z,24.6
2023-05-22T09:35:01.360Z,24.5
2023-05-22T09:36:01.361Z,24
2023-05-22T09:37:01.375Z,24.2
2023-05-22T09:38:01.322Z,24.1
2023-05-22T09:39:01.445Z,24
2023-05-22T09:40:01.336Z,24
2023-05-22T09:41:01.402Z,24.3
2023-05-22T09:42:03.568Z,24
2023-05-22T09:43:02.360Z,24.2
2023-05-22T09:44:02.464Z,24.3
2023-05-22T09:45:03.591Z,24.4
2023-05-22T09:46:02.459Z,24.1
2023-05-22T09:47:02.111Z,24.8
2023-05-22T09:48:02.115Z,24.5
2023-05-22T09:49:02.182Z,24.6
2023-05-22T09:50:02.049Z,24.7
2023-05-22T09:51:01.976Z,24.9
2023-05-22T09:52:01.851Z,24.9
2023-05-22T09:53:02.000Z,24.6
2023-05-22T09:54:01.810Z,24.9
2023-05-22T09:55:01.692Z,24.7
2023-05-22T09:56:02.595Z,24.7
2023-05-22T09:57:02.288Z,25.1
2023-05-22T09:58:02.193Z,24.3
2023-05-22T09:59:02.144Z,24.3
2023-05-22T10:00:02.150Z,24.5
2023-05-22T10:01:01.802Z,24.6
2023-05-22T10:02:01.850Z,25.1
2023-05-22T10:03:02.176Z,24.5
2023-05-22T10:04:02.143Z,24.7
2023-05-22T10:05:02.101Z,24.9
2023-05-22T10:06:02.087Z,24.5
2023-05-22T10:07:01.953Z,24.8
2023-05-22T10:08:01.954Z,24.7
2023-05-22T10:09:01.966Z,25.2
2023-05-22T10:10:01.857Z,25.7
2023-05-22T10:11:01.786Z,24.8
2023-05-22T10:12:01.811Z,25
2023-05-22T10:13:01.852Z,25.3
2023-05-22T10:14:01.847Z,25.2
2023-05-22T10:15:02.172Z,25.6
2023-05-22T10:16:02.669Z,25.8
2023-05-22T10:17:01.703Z,25.5
2023-05-22T10:18:01.578Z,25.4
2023-05-22T10:19:01.608Z,25.6
2023-05-22T10:20:01.723Z,25.7
2023-05-22T10:21:01.827Z,25.5
2023-05-22T10:22:01.884Z,25.2
2023-05-22T10:23:01.646Z,25.5
2023-05-22T10:24:01.791Z,25.4
2023-05-22T10:25:01.510Z,25.5
2023-05-22T10:26:01.530Z,25.4
2023-05-22T10:27:01.460Z,25.4
2023-05-22T10:28:01.605Z,25.1
2023-05-22T10:29:01.408Z,25.5
2023-05-22T10:30:01.331Z,25.7
2023-05-22T10:31:02.267Z,25.9
2023-05-22T10:32:02.209Z,25.5
2023-05-22T10:33:02.450Z,25.8
2023-05-22T10:34:01.464Z,25.1
2023-05-22T10:35:01.521Z,25.2
2023-05-22T10:36:01.683Z,25.2
2023-05-22T10:37:09.672Z,25.2
2023-05-22T10:38:01.898Z,24.9
2023-05-22T10:39:02.016Z,24.7
2023-05-22T10:40:02.014Z,24.4
2023-05-22T10:41:01.864Z,24.4
2023-05-22T10:42:01.925Z,24.6
2023-05-22T10:43:01.836Z,24.8
2023-05-22T10:44:01.990Z,24.8
2023-05-22T10:45:01.940Z,24.5
2023-05-22T10:46:01.708Z,25
2023-05-22T10:47:01.735Z,24.9
2023-05-22T10:48:01.747Z,25.2
2023-05-22T10:49:01.671Z,24.7
2023-05-22T10:50:01.580Z,24.5
2023-05-22T10:51:01.772Z,24.8
2023-05-22T10:52:01.801Z,25
2023-05-22T10:53:01.769Z,24.7
2023-05-22T10:54:01.788Z,24.9
2023-05-22T10:55:01.739Z,24.2
2023-05-22T10:56:01.881Z,24.4
2023-05-22T10:57:01.669Z,24.6
2023-05-22T10:58:04.911Z,24.6
2023-05-22T10:59:01.789Z,25
2023-05-22T11:00:01.757Z,25.4
2023-05-22T11:01:01.454Z,25
2023-05-22T11:02:01.550Z,25.4
2023-05-22T11:03:09.913Z,25.3
2023-05-22T11:04:01.371Z,25.3
2023-05-22T11:05:01.425Z,25.2
2023-05-22T11:06:02.356Z,25.6
2023-05-22T11:07:02.217Z,25.7
2023-05-22T11:08:02.313Z,25.8
2023-05-22T11:09:02.095Z,26.1
2023-05-22T11:10:02.127Z,25.8
2023-05-22T11:11:02.030Z,26
2023-05-22T11:12:02.054Z,26.2
2023-05-22T11:13:01.964Z,26.2
2023-05-22T11:14:01.911Z,25.9
2023-05-22T11:15:01.883Z,26.2
2023-05-22T11:16:01.288Z,26.4
2023-05-22T11:17:02.342Z,26.4
2023-05-22T11:18:01.371Z,26.2
2023-05-22T11:19:04.688Z,25.4
2023-05-22T11:20:01.780Z,25.3
2023-05-22T11:21:01.325Z,25.9
2023-05-22T11:22:02.345Z,25.7
2023-05-22T11:23:02.269Z,25.9
2023-05-22T11:24:02.305Z,26.2
2023-05-22T11:25:02.143Z,26.1
2023-05-22T11:26:02.210Z,26.5
2023-05-22T11:27:02.095Z,26.5
2023-05-22T11:28:02.166Z,25.9
2023-05-22T11:29:02.051Z,26
2023-05-22T11:30:02.097Z,25.7
2023-05-22T11:31:01.745Z,25.7
2023-05-22T11:32:01.695Z,26
2023-05-22T11:33:01.589Z,25.6
2023-05-22T11:34:01.560Z,25.3
2023-05-22T11:35:01.379Z,25.4
2023-05-22T11:36:01.474Z,25.1
2023-05-22T11:37:02.318Z,25.6
2023-05-22T11:38:02.226Z,26
2023-05-22T11:39:02.276Z,25.8
2023-05-22T11:40:02.214Z,25.7
2023-05-22T11:41:02.158Z,25.9
2023-05-22T11:42:02.070Z,25.6
2023-05-22T11:43:02.103Z,25.6
2023-05-22T11:44:02.009Z,25.3
2023-05-22T11:45:01.975Z,25.5
2023-05-22T11:46:01.785Z,25.3
2023-05-22T11:47:01.832Z,25.6
2023-05-22T11:48:01.708Z,25.4
2023-05-22T11:49:01.726Z,25.9
2023-05-22T11:50:01.596Z,26.3
2023-05-22T11:51:01.595Z,26.5
2023-05-22T11:52:01.457Z,26.8
2023-05-22T11:53:01.471Z,26.9
2023-05-22T11:54:01.334Z,26.5
2023-05-22T11:55:02.331Z,26.2
2023-05-22T11:56:01.319Z,26.6
2023-05-22T11:57:02.345Z,26.9
2023-05-22T11:58:02.209Z,26.5
2023-05-22T11:59:02.350Z,26.4
2023-05-22T12:00:02.246Z,27.1
2023-05-22T12:01:02.041Z,26.6
2023-05-22T12:02:02.103Z,26.7
2023-05-22T12:03:02.032Z,26.8
2023-05-22T12:04:02.185Z,26.4
2023-05-22T12:05:01.470Z,26.2
2023-05-22T12:06:01.344Z,26.4
2023-05-22T12:07:01.407Z,26.7
2023-05-22T12:08:02.342Z,26.7
2023-05-22T12:09:02.218Z,26.6
2023-05-22T12:10:02.228Z,26.7
2023-05-22T12:11:02.122Z,25.8
2023-05-22T12:12:02.195Z,25.9
2023-05-22T12:13:02.173Z,25.9
2023-05-22T12:14:02.146Z,25.9
2023-05-22T12:15:01.989Z,25.2
2023-05-22T12:16:01.682Z,25.6
2023-05-22T12:17:01.795Z,25.9
2023-05-22T12:18:01.623Z,25.5
2023-05-22T12:19:01.354Z,25.9
2023-05-22T12:20:01.376Z,25.5
2023-05-22T12:21:02.366Z,25.5
2023-05-22T12:22:02.211Z,25
2023-05-22T12:23:02.272Z,24.7
2023-05-22T12:24:01.326Z,24.6
2023-05-22T12:25:01.329Z,24.7
2023-05-22T12:26:02.329Z,24.3
2023-05-22T12:27:02.154Z,24.6
2023-05-22T12:28:02.213Z,24.4
2023-05-22T12:29:02.083Z,24.3
2023-05-22T12:30:02.160Z,24.3
2023-05-22T12:31:01.835Z,24.6
2023-05-22T12:32:01.857Z,24.7
2023-05-22T12:33:01.736Z,24.6
2023-05-22T12:34:01.696Z,24.5
2023-05-22T12:35:01.774Z,24.5
2023-05-22T12:36:01.552Z,24.8
2023-05-22T12:37:01.648Z,24.6
2023-05-22T12:38:01.465Z,24.7
2023-05-22T12:39:01.388Z,24.6
2023-05-22T12:40:01.319Z,24.7
2023-05-22T12:41:02.314Z,24.8
2023-05-22T12:42:02.239Z,24.8
2023-05-22T12:43:02.272Z,24.6
2023-05-22T12:44:02.113Z,24.4
2023-05-22T12:45:02.185Z,24.2
2023-05-22T12:46:02.942Z,24.2
2023-05-22T12:47:01.887Z,24.3
2023-05-22T12:48:01.963Z,24.8
2023-05-22T12:49:01.822Z,24.9
2023-05-22T12:50:01.764Z,25.7
2023-05-22T12:51:01.732Z,26
2023-05-22T12:52:01.635Z,26.3
2023-05-22T12:53:01.676Z,26.6
2023-05-22T12:54:01.551Z,26.3
2023-05-22T12:55:01.550Z,26.2
2023-05-22T12:56:01.384Z,26.4
2023-05-22T12:57:01.426Z,26.5
2023-05-22T12:58:01.283Z,26.8
2023-05-22T12:59:02.369Z,26.2
2023-05-22T13:00:02.242Z,26.5
2023-05-22T13:01:01.312Z,27.1
2023-05-22T13:02:01.462Z,26.9
2023-05-22T13:03:01.673Z,27.1
2023-05-22T13:04:01.579Z,27
2023-05-22T13:05:01.589Z,27
2023-05-22T13:06:01.585Z,26.8
2023-05-22T13:07:01.469Z,27.4
2023-05-22T13:08:01.349Z,27
2023-05-22T13:09:01.408Z,27
2023-05-22T13:10:02.359Z,26.9
2023-05-22T13:11:02.309Z,26.7
2023-05-22T13:12:02.300Z,26.5
2023-05-22T13:13:02.128Z,26.8
2023-05-22T13:14:02.162Z,26.9
2023-05-22T13:15:02.044Z,26.6
2023-05-22T13:16:02.159Z,26.7
2023-05-22T13:17:02.108Z,26.6
2023-05-22T13:18:02.115Z,27
2023-05-22T13:19:02.081Z,26.6
2023-05-22T13:20:02.228Z,27.2
2023-05-22T13:21:02.102Z,27.2
2023-05-22T13:22:02.172Z,27
2023-05-22T13:23:02.131Z,26.9
2023-05-22T13:24:02.019Z,26.6